SAME/MDZ METAR and TAF weather

Enter ICAO airport designator
Station Type Date Time Source
SAME METAR 2020/07/08 00:00 UTC NOAA

SAME 080000Z 29003KT CAVOK 07/03 Q1019


Station Type Date Time Source
SAME Decoded METAR 2020/07/08 00:00 UTC NOAA

Mendoza Aerodrome, Argentina (SAME) 32-50S 068-47W 704M
Jul 07, 2020 - 08:00 PM EDT / 2020.07.08 0000 UTC
Wind: from the WNW (290 degrees) at 3 MPH (3 KT):0
Visibility: greater than 7 mile(s):0
Temperature: 44 F (7 C)
Dew Point: 37 F (3 C)
Relative Humidity: 75%
Pressure (altimeter): 30.09 in. Hg (1019 hPa)
ob: SAME 080000Z 29003KT CAVOK 07/03 Q1019
cycle: 0

Station Type Date Time Source
SAME TAF 2020/07/07 18:06 UTC NOAA

TAF TAF SAME 071700Z 0718/0818 VRB03KT 9999 FEW040 TX12/0719Z TN02/0811Z
BECMG 0813/0815 18010KT

Example: see airport list